createdAt,value
2023-05-13T00:00:05.999Z,14.95
2023-05-13T00:03:09.499Z,14.87
2023-05-13T00:06:12.720Z,14.84
2023-05-13T00:09:15.986Z,14.80
2023-05-13T00:12:18.996Z,14.65
2023-05-13T00:15:23.388Z,14.67
2023-05-13T00:18:26.709Z,14.57
2023-05-13T00:21:29.804Z,14.55
2023-05-13T00:24:32.886Z,14.53
2023-05-13T00:27:36.081Z,14.52
2023-05-13T00:30:42.085Z,14.48
2023-05-13T00:33:46.600Z,14.48
2023-05-13T00:36:50.052Z,14.42
2023-05-13T00:39:53.232Z,14.45
2023-05-13T00:42:56.665Z,14.43
2023-05-13T00:46:01.430Z,14.43
2023-05-13T00:49:06.002Z,14.39
2023-05-13T00:52:09.598Z,14.37
2023-05-13T00:55:14.546Z,14.36
2023-05-13T00:58:18.111Z,14.31
2023-05-13T01:01:32.092Z,14.32
2023-05-13T01:04:44.545Z,14.30
2023-05-13T01:07:56.701Z,14.28
2023-05-13T01:11:18.789Z,14.18
2023-05-13T01:14:27.530Z,14.10
2023-05-13T01:17:37.093Z,14.11
2023-05-13T01:20:43.763Z,14.06
2023-05-13T01:23:48.274Z,14.02
2023-05-13T01:26:51.652Z,13.93
2023-05-13T01:29:56.480Z,13.97
2023-05-13T01:33:04.476Z,13.93
2023-05-13T01:36:09.176Z,13.96
2023-05-13T01:39:15.169Z,13.96
2023-05-13T01:42:18.374Z,13.93
2023-05-13T01:45:21.471Z,13.82
2023-05-13T01:48:25.414Z,13.81
2023-05-13T01:51:28.425Z,13.79
2023-05-13T01:54:33.056Z,13.82
2023-05-13T01:57:41.564Z,13.74
2023-05-13T02:00:44.747Z,13.75
2023-05-13T02:03:47.909Z,13.70
2023-05-13T02:06:51.071Z,13.70
2023-05-13T02:09:59.584Z,13.65
2023-05-13T02:13:03.862Z,13.61
2023-05-13T02:16:07.985Z,13.59
2023-05-13T02:19:11.092Z,13.52
2023-05-13T02:22:14.337Z,13.45
2023-05-13T02:25:18.943Z,13.40
2023-05-13T02:28:21.934Z,13.31
2023-05-13T02:31:24.945Z,13.32
2023-05-13T02:34:28.246Z,13.35
2023-05-13T02:37:31.494Z,13.38
2023-05-13T02:40:39.790Z,13.34
2023-05-13T02:43:43.349Z,13.34
2023-05-13T02:46:46.823Z,13.34
2023-05-13T02:49:49.945Z,13.30
2023-05-13T02:52:53.128Z,13.31
2023-05-13T02:55:57.624Z,13.22
2023-05-13T02:59:02.340Z,13.16
2023-05-13T03:02:05.799Z,13.11
2023-05-13T03:05:09.926Z,13.02
2023-05-13T03:08:13.044Z,12.97
2023-05-13T03:11:17.353Z,12.93
2023-05-13T03:14:20.541Z,12.86
2023-05-13T03:17:24.874Z,12.78
2023-05-13T03:20:28.053Z,12.74
2023-05-13T03:23:31.533Z,12.68
2023-05-13T03:26:37.254Z,12.56
2023-05-13T03:29:40.959Z,12.52
2023-05-13T03:32:44.571Z,12.56
2023-05-13T03:35:49.780Z,12.54
2023-05-13T03:38:56.289Z,12.52
2023-05-13T03:42:01.091Z,12.49
2023-05-13T03:45:05.667Z,12.48
2023-05-13T03:48:11.803Z,12.45
2023-05-13T03:51:16.086Z,12.42
2023-05-13T03:54:19.337Z,12.41
2023-05-13T03:57:24.267Z,12.40
2023-05-13T04:00:27.310Z,12.38
2023-05-13T04:03:31.299Z,12.34
2023-05-13T04:06:34.399Z,12.37
2023-05-13T04:09:40.001Z,12.34
2023-05-13T04:12:44.555Z,12.37
2023-05-13T04:15:47.535Z,12.39
2023-05-13T04:18:50.644Z,12.41
2023-05-13T04:21:54.021Z,12.41
2023-05-13T04:24:59.529Z,12.47
2023-05-13T04:28:04.033Z,12.54
2023-05-13T04:31:14.980Z,12.60
2023-05-13T04:34:18.123Z,12.69
2023-05-13T04:37:23.373Z,12.71
2023-05-13T04:40:28.790Z,12.73
2023-05-13T04:43:36.390Z,12.78
2023-05-13T04:46:40.505Z,12.84
2023-05-13T04:49:43.797Z,12.92
2023-05-13T04:52:47.643Z,12.96
2023-05-13T04:55:57.195Z,13.05
2023-05-13T04:59:04.584Z,13.18
2023-05-13T05:02:07.719Z,13.27
2023-05-13T05:05:11.356Z,13.32
2023-05-13T05:08:14.526Z,13.38
2023-05-13T05:11:17.714Z,13.54
2023-05-13T05:14:22.249Z,13.63
2023-05-13T05:17:27.825Z,13.71
2023-05-13T05:20:31.433Z,13.88
2023-05-13T05:23:36.473Z,14.03
2023-05-13T05:26:41.142Z,14.14
2023-05-13T05:29:47.223Z,14.17
2023-05-13T05:32:51.329Z,14.30
2023-05-13T05:35:54.556Z,14.42
2023-05-13T05:38:59.157Z,14.57
2023-05-13T05:42:08.713Z,14.71
2023-05-13T05:45:14.049Z,14.82
2023-05-13T05:48:18.034Z,14.92
2023-05-13T05:51:21.130Z,15.03
2023-05-13T05:54:24.963Z,15.13
2023-05-13T05:57:28.753Z,15.26
2023-05-13T06:00:33.828Z,15.39
2023-05-13T06:03:37.254Z,15.50
2023-05-13T06:06:40.706Z,15.61
2023-05-13T06:09:43.996Z,15.79
2023-05-13T06:12:47.124Z,15.85
2023-05-13T06:15:51.652Z,15.87
2023-05-13T06:18:54.942Z,16.00
2023-05-13T06:21:58.006Z,16.13
2023-05-13T06:25:01.075Z,16.28
2023-05-13T06:28:06.135Z,16.42
2023-05-13T06:31:10.475Z,16.56
2023-05-13T06:34:16.588Z,16.71
2023-05-13T06:37:20.074Z,16.86
2023-05-13T06:40:23.792Z,17.10
2023-05-13T06:43:27.844Z,17.31
2023-05-13T06:46:35.643Z,17.50
2023-05-13T06:49:38.712Z,17.71
2023-05-13T06:52:42.141Z,17.83
2023-05-13T06:55:48.483Z,17.98
2023-05-13T06:58:51.832Z,18.14
2023-05-13T07:01:56.203Z,18.55
2023-05-13T07:04:59.323Z,18.61
2023-05-13T07:08:06.611Z,18.65
2023-05-13T07:11:09.717Z,18.89
2023-05-13T07:14:12.741Z,19.10
2023-05-13T07:17:17.967Z,19.18
2023-05-13T07:20:22.800Z,18.97
2023-05-13T07:23:26.629Z,19.21
2023-05-13T07:26:29.732Z,19.32
2023-05-13T07:29:32.984Z,19.49
2023-05-13T07:32:37.360Z,19.72
2023-05-13T07:35:40.757Z,19.76
2023-05-13T07:38:44.322Z,19.64
2023-05-13T07:41:47.723Z,19.85
2023-05-13T07:44:50.867Z,20.12
2023-05-13T07:47:55.292Z,19.71
2023-05-13T07:50:58.740Z,19.55
2023-05-13T07:54:01.880Z,19.57
2023-05-13T07:57:04.936Z,19.39
2023-05-13T08:00:09.639Z,19.66
2023-05-13T08:03:20.030Z,19.48
2023-05-13T08:06:23.131Z,19.64
2023-05-13T08:09:26.122Z,20.03
2023-05-13T08:12:29.236Z,20.44
2023-05-13T08:15:32.340Z,20.29
2023-05-13T08:18:36.774Z,20.13
2023-05-13T08:21:40.111Z,20.41
2023-05-13T08:24:43.491Z,20.38
2023-05-13T08:27:46.601Z,20.07
2023-05-13T08:30:49.667Z,20.35
2023-05-13T08:33:54.611Z,20.62
2023-05-13T08:36:57.665Z,20.64
2023-05-13T08:40:01.570Z,20.65
2023-05-13T08:43:06.203Z,20.85
2023-05-13T08:46:11.832Z,21.03
2023-05-13T08:49:16.769Z,20.66
2023-05-13T08:52:22.594Z,20.41
2023-05-13T08:55:27.757Z,20.58
2023-05-13T08:58:30.836Z,20.82
2023-05-13T09:01:34.103Z,20.82
2023-05-13T09:04:41.664Z,20.80
2023-05-13T09:07:44.952Z,21.01
2023-05-13T09:10:48.217Z,20.88
2023-05-13T09:13:59.479Z,21.33
2023-05-13T09:17:03.056Z,21.47
2023-05-13T09:20:12.106Z,21.40
2023-05-13T09:23:15.865Z,21.62
2023-05-13T09:26:29.151Z,21.70
2023-05-13T09:29:33.294Z,21.83
2023-05-13T09:32:36.682Z,21.88
2023-05-13T09:35:49.066Z,22.30
2023-05-13T09:38:56.674Z,22.53
2023-05-13T09:41:59.884Z,22.71
2023-05-13T09:45:07.775Z,22.01
2023-05-13T09:48:11.325Z,22.22
2023-05-13T09:51:16.605Z,22.06
2023-05-13T09:54:19.940Z,22.20
2023-05-13T09:57:23.079Z,21.78
2023-05-13T10:00:32.564Z,22.09
2023-05-13T10:03:39.029Z,22.35
2023-05-13T10:06:43.908Z,22.41
2023-05-13T10:09:47.581Z,22.73
2023-05-13T10:12:52.530Z,23.26
2023-05-13T10:15:56.952Z,23.28
2023-05-13T10:19:00.445Z,23.06
2023-05-13T10:22:05.468Z,22.84
2023-05-13T10:25:09.702Z,22.37
2023-05-13T10:28:13.615Z,23.17
2023-05-13T10:31:17.391Z,22.98
2023-05-13T10:34:20.733Z,22.85
2023-05-13T10:37:51.627Z,23.43
2023-05-13T10:41:13.217Z,22.54
2023-05-13T10:44:16.491Z,22.44
2023-05-13T10:47:19.582Z,22.48
2023-05-13T10:50:26.728Z,22.82
2023-05-13T10:53:33.142Z,22.44
2023-05-13T10:56:36.286Z,22.45
2023-05-13T11:00:19.140Z,23.00
2023-05-13T11:03:31.089Z,22.71
2023-05-13T11:06:37.225Z,23.26
2023-05-13T11:09:41.725Z,23.09
2023-05-13T11:13:24.554Z,23.50
2023-05-13T11:16:27.731Z,23.19
2023-05-13T11:19:33.181Z,23.04
2023-05-13T11:22:36.930Z,23.28
2023-05-13T11:25:41.279Z,23.25
2023-05-13T11:29:06.938Z,23.27
2023-05-13T11:32:10.041Z,23.01
2023-05-13T11:35:15.148Z,23.10
2023-05-13T11:38:25.292Z,23.92
2023-05-13T11:41:33.192Z,23.80
2023-05-13T11:44:36.566Z,23.31
2023-05-13T11:47:39.628Z,23.67
2023-05-13T11:50:42.839Z,24.02
2023-05-13T11:53:45.991Z,23.97
2023-05-13T11:56:50.556Z,23.88
2023-05-13T11:59:57.951Z,24.00
2023-05-13T12:03:03.468Z,24.13
2023-05-13T12:06:07.128Z,23.72
2023-05-13T12:09:12.728Z,23.62
2023-05-13T12:12:18.136Z,24.16
2023-05-13T12:15:23.221Z,24.72
2023-05-13T12:18:26.622Z,24.71
2023-05-13T12:21:34.452Z,24.01
2023-05-13T12:24:37.590Z,23.79
2023-05-13T12:27:41.850Z,24.32
2023-05-13T12:30:52.239Z,24.73
2023-05-13T12:33:55.297Z,24.38
2023-05-13T12:36:58.406Z,24.17
2023-05-13T12:40:22.934Z,25.04
2023-05-13T12:43:35.858Z,24.57
2023-05-13T12:46:40.229Z,24.35
2023-05-13T12:49:54.098Z,24.26
2023-05-13T12:52:59.860Z,24.73
2023-05-13T12:56:03.417Z,25.44
2023-05-13T12:59:09.018Z,25.46
2023-05-13T13:02:12.061Z,24.99
2023-05-13T13:05:15.211Z,24.15
2023-05-13T13:08:18.670Z,24.61
2023-05-13T13:11:22.294Z,24.66
2023-05-13T13:14:26.555Z,24.39
2023-05-13T13:17:33.738Z,24.66
2023-05-13T13:20:37.660Z,25.45
2023-05-13T13:28:18.108Z,24.98
2023-05-13T13:31:22.479Z,24.68
2023-05-13T13:34:25.441Z,24.95
2023-05-13T13:37:28.609Z,24.68
2023-05-13T13:40:31.607Z,23.97
2023-05-13T13:43:34.626Z,24.09
2023-05-13T13:46:39.059Z,24.83
2023-05-13T13:49:42.250Z,25.56
2023-05-13T13:52:48.370Z,25.22
2023-05-13T13:55:51.399Z,24.48
2023-05-13T13:58:54.416Z,24.62
2023-05-13T14:01:59.066Z,24.99
2023-05-13T14:05:02.462Z,24.84
2023-05-13T14:08:06.367Z,24.97
2023-05-13T14:11:09.373Z,25.13
2023-05-13T14:14:13.912Z,25.21
2023-05-13T14:17:18.329Z,24.38
2023-05-13T14:20:22.199Z,23.75
2023-05-13T14:23:25.464Z,23.96
2023-05-13T14:26:28.630Z,24.45
2023-05-13T14:29:32.127Z,24.54
2023-05-13T14:32:36.563Z,24.98
2023-05-13T14:35:39.544Z,25.03
2023-05-13T14:38:42.744Z,25.52
2023-05-13T14:41:46.144Z,26.01
2023-05-13T14:44:49.330Z,25.69
2023-05-13T14:47:54.130Z,25.19
2023-05-13T14:50:57.538Z,24.96
2023-05-13T14:54:00.570Z,25.09
2023-05-13T14:57:03.884Z,25.20
2023-05-13T15:00:08.834Z,25.46
2023-05-13T15:03:13.481Z,25.54
2023-05-13T15:06:16.775Z,25.18
2023-05-13T15:09:19.956Z,24.94
2023-05-13T15:12:23.141Z,25.39
2023-05-13T15:15:26.300Z,25.85
2023-05-13T15:18:30.920Z,25.19
2023-05-13T15:21:34.078Z,25.55
2023-05-13T15:24:37.364Z,25.37
2023-05-13T15:27:40.946Z,25.23
2023-05-13T15:30:44.948Z,25.46
2023-05-13T15:33:49.801Z,25.82
2023-05-13T15:36:52.919Z,25.94
2023-05-13T15:39:55.948Z,25.61
2023-05-13T15:42:58.854Z,25.26
2023-05-13T15:46:01.990Z,24.89
2023-05-13T15:49:06.672Z,24.33
2023-05-13T15:52:10.083Z,23.50
2023-05-13T15:55:13.176Z,23.06
2023-05-13T15:58:16.317Z,22.78
2023-05-13T16:01:19.331Z,22.32
2023-05-13T16:04:23.879Z,22.29
2023-05-13T16:07:29.040Z,21.72
2023-05-13T16:10:32.042Z,21.16
2023-05-13T16:13:35.303Z,21.34
2023-05-13T16:16:38.649Z,21.57
2023-05-13T16:19:43.121Z,21.52
2023-05-13T16:22:46.242Z,21.22
2023-05-13T16:25:49.461Z,21.07
2023-05-13T16:28:52.931Z,20.68
2023-05-13T16:31:57.072Z,20.41
2023-05-13T16:35:02.326Z,20.39
2023-05-13T16:38:05.256Z,20.45
2023-05-13T16:41:08.455Z,20.24
2023-05-13T16:44:12.117Z,20.19
2023-05-13T16:47:15.598Z,20.18
2023-05-13T16:50:20.204Z,20.24
2023-05-13T16:53:23.678Z,20.07
2023-05-13T16:56:26.620Z,20.09
2023-05-13T16:59:32.816Z,20.21
2023-05-13T17:02:50.967Z,20.10
2023-05-13T17:05:55.544Z,20.25
2023-05-13T17:08:58.600Z,20.40
2023-05-13T17:12:01.621Z,20.28
2023-05-13T17:15:05.602Z,19.85
2023-05-13T17:18:08.774Z,19.73
2023-05-13T17:21:13.285Z,19.49
2023-05-13T17:24:16.622Z,19.49
2023-05-13T17:27:19.572Z,19.53
2023-05-13T17:30:23.024Z,19.38
2023-05-13T17:33:26.107Z,19.40
2023-05-13T17:36:32.548Z,19.55
2023-05-13T17:39:35.689Z,19.49
2023-05-13T17:42:38.875Z,19.40
2023-05-13T17:45:45.051Z,19.39
2023-05-13T17:48:48.192Z,19.20
2023-05-13T17:51:52.573Z,19.11
2023-05-13T17:54:55.736Z,18.98
2023-05-13T17:57:59.793Z,18.74
2023-05-13T18:01:03.167Z,18.59
2023-05-13T18:04:06.494Z,18.70
2023-05-13T18:07:10.964Z,18.71
2023-05-13T18:10:14.219Z,18.75
2023-05-13T18:13:17.222Z,18.66
2023-05-13T18:16:20.557Z,18.48
2023-05-13T18:19:23.598Z,18.49
2023-05-13T18:22:27.976Z,18.29
2023-05-13T18:25:33.579Z,18.34
2023-05-13T18:28:38.340Z,18.21
2023-05-13T18:31:41.688Z,17.99
2023-05-13T18:34:44.727Z,18.08
2023-05-13T18:37:49.106Z,18.19
2023-05-13T18:40:52.322Z,18.14
2023-05-13T18:43:58.119Z,17.98
2023-05-13T18:47:01.127Z,17.75
2023-05-13T18:50:04.514Z,17.53
2023-05-13T18:53:08.809Z,17.41
2023-05-13T18:56:12.004Z,17.31
2023-05-13T18:59:15.087Z,17.24
2023-05-13T19:02:18.334Z,16.97
2023-05-13T19:05:21.452Z,16.89
2023-05-13T19:08:25.789Z,16.89
2023-05-13T19:11:28.826Z,16.61
2023-05-13T19:14:31.758Z,16.66
2023-05-13T19:17:40.263Z,16.61
2023-05-13T19:20:46.290Z,16.48
2023-05-13T19:23:51.260Z,16.43
2023-05-13T19:26:57.029Z,16.42
2023-05-13T19:30:01.410Z,16.18
2023-05-13T19:33:05.643Z,16.10
2023-05-13T19:36:10.710Z,15.99
2023-05-13T19:39:16.501Z,15.90
2023-05-13T19:42:19.547Z,15.80
2023-05-13T19:45:22.609Z,15.67
2023-05-13T19:48:30.149Z,15.57
2023-05-13T19:51:33.511Z,15.46
2023-05-13T19:54:38.209Z,15.47
2023-05-13T19:57:42.564Z,15.39
2023-05-13T20:00:46.305Z,15.35
2023-05-13T20:03:49.433Z,15.35
2023-05-13T20:06:52.985Z,15.25
2023-05-13T20:09:57.477Z,15.15
2023-05-13T20:13:01.740Z,15.06
2023-05-13T20:16:04.884Z,14.99
2023-05-13T20:19:08.393Z,14.94
2023-05-13T20:22:11.847Z,14.89
2023-05-13T20:25:16.674Z,14.82
2023-05-13T20:28:19.627Z,14.71
2023-05-13T20:31:23.070Z,14.59
2023-05-13T20:34:26.192Z,14.49
2023-05-13T20:37:29.436Z,14.39
2023-05-13T20:40:33.911Z,14.26
2023-05-13T20:43:37.358Z,14.35
2023-05-13T20:46:40.454Z,14.25
2023-05-13T20:49:44.545Z,14.22
2023-05-13T20:52:47.618Z,14.22
2023-05-13T20:55:51.961Z,14.23
2023-05-13T20:58:55.282Z,14.18
2023-05-13T21:01:58.515Z,14.09
2023-05-13T21:05:01.644Z,14.03
2023-05-13T21:08:05.090Z,14.04
2023-05-13T21:11:09.756Z,13.92
2023-05-13T21:14:12.797Z,13.88
2023-05-13T21:17:21.209Z,13.84
2023-05-13T21:20:24.680Z,13.78
2023-05-13T21:23:27.930Z,13.69
2023-05-13T21:26:32.385Z,13.58
2023-05-13T21:29:35.486Z,13.50
2023-05-13T21:32:38.545Z,13.52
2023-05-13T21:35:41.697Z,13.62
2023-05-13T21:38:45.023Z,13.55
2023-05-13T21:41:49.577Z,13.60
2023-05-13T21:44:53.216Z,13.68
2023-05-13T21:47:56.331Z,13.77
2023-05-13T21:50:59.390Z,13.70
2023-05-13T21:54:02.382Z,13.73
2023-05-13T21:57:08.893Z,13.72
2023-05-13T22:00:15.261Z,13.59
2023-05-13T22:03:21.478Z,13.67
2023-05-13T22:06:24.668Z,13.64
2023-05-13T22:09:27.674Z,13.66
2023-05-13T22:12:32.044Z,13.58
2023-05-13T22:15:35.473Z,13.56
2023-05-13T22:18:39.097Z,13.50
2023-05-13T22:21:42.218Z,13.47
2023-05-13T22:24:45.328Z,13.34
2023-05-13T22:27:51.382Z,13.33
2023-05-13T22:30:55.344Z,13.23
2023-05-13T22:33:58.411Z,13.16
2023-05-13T22:37:02.501Z,13.13
2023-05-13T22:40:07.441Z,13.11
2023-05-13T22:43:11.740Z,13.07
2023-05-13T22:46:14.872Z,13.05
2023-05-13T22:49:20.356Z,13.01
2023-05-13T22:52:23.433Z,12.97
2023-05-13T22:55:26.360Z,12.91
2023-05-13T22:58:30.764Z,12.87
2023-05-13T23:01:33.805Z,12.81
2023-05-13T23:04:37.199Z,12.82
2023-05-13T23:07:40.475Z,12.77
2023-05-13T23:10:43.561Z,12.69
2023-05-13T23:13:47.797Z,12.69
2023-05-13T23:16:50.738Z,12.63
2023-05-13T23:19:53.802Z,12.57
2023-05-13T23:22:56.963Z,12.54
2023-05-13T23:25:59.931Z,12.51
2023-05-13T23:29:04.379Z,12.49
2023-05-13T23:32:08.080Z,12.44
2023-05-13T23:35:11.637Z,12.37
2023-05-13T23:38:14.593Z,12.37
2023-05-13T23:41:17.978Z,12.31
2023-05-13T23:44:22.497Z,12.28
2023-05-13T23:47:28.375Z,12.23
2023-05-13T23:50:31.436Z,12.18
2023-05-13T23:53:34.801Z,12.17
2023-05-13T23:56:37.725Z,12.17
2023-05-13T23:59:42.105Z,12.12
